Bethany Beach, Delaware
Current Conditions -  °F | °C
As of 6:53 PM on Wednesday 22 Oct 2014 (Local Time) from KOXB Reporting Station
Overcast Overcast  
Wind Chill: 55°   Ceiling: 1700
Heat Index: 55°   Visibility: 10mi
Dew Point: 51°   Wind: 12mph
Humidity: 86%   Direction: 350°N
Pressure: 29.78"   Gusts: 29mph
Location:  38.54°N, 75.06°W
Report Text: KOXB 222253Z AUTO 35010G25KT 10SM OVC017 13/11 A2978 RMK AO2 PK WND 35028/2229 SLP084 T01280106 TSNO
Loading
Personal Weather Stations






























Interactive Weather Map
Tropical Storm Tracking
New forecast layout! Learn more

10-Day Weather Forecast

Advertisements
Track Severe Weather on mobile